createdAt,value
2023-05-23T00:02:24.047Z,3.97
2023-05-23T00:07:26.407Z,4.95
2023-05-23T00:12:28.057Z,5.40
2023-05-23T00:17:29.848Z,4.93
2023-05-23T00:22:31.587Z,4.22
2023-05-23T00:27:33.212Z,4.72
2023-05-23T00:32:35.679Z,9.65
2023-05-23T00:37:38.172Z,8.13
2023-05-23T00:42:39.834Z,8.77
2023-05-23T00:47:42.482Z,10.93
2023-05-23T00:52:46.281Z,9.02
2023-05-23T00:57:48.517Z,7.78
2023-05-23T01:02:52.127Z,6.43
2023-05-23T01:07:54.650Z,8.35
2023-05-23T01:13:02.698Z,7.22
2023-05-23T01:18:14.502Z,8.57
2023-05-23T01:23:28.412Z,9.05
2023-05-23T01:28:40.972Z,9.02
2023-05-23T01:33:44.022Z,8.82
2023-05-23T01:38:45.703Z,7.90
2023-05-23T01:43:47.765Z,8.30
2023-05-23T01:48:50.604Z,7.85
2023-05-23T01:53:52.480Z,7.88
2023-05-23T01:58:54.410Z,8.82
2023-05-23T02:03:57.102Z,6.20
2023-05-23T02:08:58.782Z,7.38
2023-05-23T02:14:00.984Z,6.82
2023-05-23T02:19:03.580Z,7.43
2023-05-23T02:24:05.519Z,5.57
2023-05-23T02:29:07.321Z,6.63
2023-05-23T02:34:09.058Z,5.60
2023-05-23T02:39:10.835Z,5.07
2023-05-23T02:44:12.708Z,4.63
2023-05-23T02:49:14.593Z,5.75
2023-05-23T02:54:16.869Z,5.13
2023-05-23T02:59:18.771Z,5.30
2023-05-23T03:04:21.431Z,6.47
2023-05-23T03:09:23.108Z,5.43
2023-05-23T03:14:25.148Z,7.20
2023-05-23T03:19:26.925Z,6.38
2023-05-23T03:24:28.756Z,7.45
2023-05-23T03:29:30.542Z,5.50
2023-05-23T03:34:33.944Z,5.78
2023-05-23T03:39:36.875Z,6.07
2023-05-23T03:44:40.475Z,4.88
2023-05-23T03:49:42.453Z,4.97
2023-05-23T03:54:44.586Z,4.90
2023-05-23T03:59:46.411Z,5.88
2023-05-23T04:04:48.486Z,6.63
2023-05-23T04:09:50.317Z,4.90
2023-05-23T04:14:52.990Z,5.80
2023-05-23T04:19:55.219Z,7.22
2023-05-23T04:24:57.746Z,6.63
2023-05-23T04:30:03.979Z,6.10
2023-05-23T04:35:07.351Z,4.55
2023-05-23T04:40:13.567Z,6.30
2023-05-23T04:45:34.023Z,5.13
2023-05-23T04:50:47.816Z,5.38
2023-05-23T04:55:50.203Z,5.32
2023-05-23T05:00:53.701Z,6.40
2023-05-23T05:05:56.230Z,7.45
2023-05-23T05:10:58.232Z,7.57
2023-05-23T05:16:00.086Z,7.15
2023-05-23T05:21:02.315Z,8.07
2023-05-23T05:26:05.455Z,9.20
2023-05-23T05:31:07.406Z,8.57
2023-05-23T05:36:11.042Z,8.32
2023-05-23T05:41:13.361Z,10.07
2023-05-23T05:46:20.884Z,10.57
2023-05-23T05:51:22.729Z,11.85
2023-05-23T05:56:24.681Z,13.38
2023-05-23T06:01:26.865Z,15.70
2023-05-23T06:06:28.886Z,17.70
2023-05-23T06:11:30.988Z,26.10
2023-05-23T06:16:33.284Z,17.08
2023-05-23T06:21:35.171Z,16.67
2023-05-23T06:26:39.413Z,16.55
2023-05-23T06:31:41.221Z,16.20
2023-05-23T06:36:43.124Z,15.60
2023-05-23T06:41:44.897Z,15.43
2023-05-23T06:46:47.110Z,15.75
2023-05-23T06:51:51.043Z,15.05
2023-05-23T06:56:53.402Z,14.15
2023-05-23T07:01:56.069Z,15.07
2023-05-23T07:06:59.679Z,13.40
2023-05-23T07:12:01.436Z,15.93
2023-05-23T07:17:04.136Z,11.43
2023-05-23T07:22:06.188Z,11.80
2023-05-23T07:27:10.572Z,10.68
2023-05-23T07:32:13.848Z,10.73
2023-05-23T07:37:15.947Z,10.95
2023-05-23T07:42:19.983Z,9.68
2023-05-23T07:47:21.906Z,10.40
2023-05-23T07:52:23.990Z,8.63
2023-05-23T07:57:26.234Z,9.18
2023-05-23T08:02:28.738Z,10.05
2023-05-23T08:07:31.261Z,9.52
2023-05-23T08:12:36.705Z,8.77
2023-05-23T08:17:46.517Z,9.48
2023-05-23T08:22:48.411Z,10.18
2023-05-23T08:27:51.493Z,9.98
2023-05-23T08:33:13.230Z,9.77
2023-05-23T08:38:21.931Z,9.60
2023-05-23T08:43:35.059Z,9.18
2023-05-23T08:48:38.975Z,9.55
2023-05-23T08:53:47.140Z,10.55
2023-05-23T08:58:49.642Z,11.90
2023-05-23T09:03:54.498Z,14.80
2023-05-23T09:09:12.446Z,14.65
2023-05-23T09:14:15.521Z,17.33
2023-05-23T09:19:19.096Z,18.42
2023-05-23T09:24:34.993Z,22.05
2023-05-23T09:29:40.327Z,24.08
2023-05-23T09:34:57.143Z,30.73
2023-05-23T09:40:01.036Z,31.17
2023-05-23T09:45:04.838Z,31.80
2023-05-23T09:50:08.958Z,32.38
2023-05-23T09:55:11.052Z,30.73
2023-05-23T10:00:16.982Z,23.63
2023-05-23T10:05:42.031Z,22.25
2023-05-23T10:11:13.171Z,18.35
2023-05-23T10:16:29.166Z,14.07
2023-05-23T10:21:46.449Z,11.30
2023-05-23T10:26:48.972Z,10.82
2023-05-23T10:31:53.053Z,10.52
2023-05-23T10:37:20.797Z,10.95
2023-05-23T10:42:41.074Z,11.02
2023-05-23T10:47:43.232Z,9.25
2023-05-23T10:52:45.184Z,9.45
2023-05-23T10:57:47.181Z,9.38
2023-05-23T11:03:00.877Z,9.80
2023-05-23T11:08:15.370Z,10.90
2023-05-23T11:13:17.412Z,10.68
2023-05-23T11:18:24.665Z,10.20
2023-05-23T11:23:40.513Z,9.93
2023-05-23T11:28:58.778Z,8.80
2023-05-23T11:34:01.594Z,10.02
2023-05-23T11:39:04.172Z,9.85
2023-05-23T11:44:13.308Z,10.40
2023-05-23T11:49:15.172Z,9.95
2023-05-23T11:54:17.171Z,10.02
2023-05-23T11:59:19.028Z,9.52
2023-05-23T12:04:21.013Z,9.50
2023-05-23T12:09:22.905Z,10.75
2023-05-23T12:14:29.036Z,10.68
2023-05-23T12:19:31.195Z,9.40
2023-05-23T12:24:33.059Z,9.30
2023-05-23T12:29:35.891Z,8.85
2023-05-23T12:34:42.688Z,8.80
2023-05-23T12:39:45.370Z,9.50
2023-05-23T12:44:51.305Z,7.07
2023-05-23T12:49:53.155Z,6.38
2023-05-23T12:54:54.902Z,6.40
2023-05-23T12:59:56.615Z,8.85
2023-05-23T13:04:58.410Z,8.75
2023-05-23T13:10:00.703Z,8.00
2023-05-23T13:15:02.477Z,6.22
2023-05-23T13:20:05.339Z,5.38
2023-05-23T13:25:08.679Z,4.80
2023-05-23T13:30:10.774Z,5.78
2023-05-23T13:35:12.907Z,6.30
2023-05-23T13:40:19.845Z,7.75
2023-05-23T13:45:23.212Z,7.93
2023-05-23T13:50:25.210Z,6.68
2023-05-23T13:55:27.614Z,6.05
2023-05-23T14:00:29.332Z,5.85
2023-05-23T14:05:31.150Z,5.80
2023-05-23T14:10:35.730Z,5.57
2023-05-23T14:15:38.470Z,4.68
2023-05-23T14:20:40.464Z,2.47
2023-05-23T14:25:42.699Z,2.38
2023-05-23T14:30:44.619Z,2.40
2023-05-23T14:35:46.392Z,2.17
2023-05-23T14:40:48.882Z,2.58
2023-05-23T14:45:50.715Z,2.78
2023-05-23T14:50:52.497Z,3.85
2023-05-23T14:55:54.618Z,4.95
2023-05-23T15:00:57.395Z,4.97
2023-05-23T15:06:00.209Z,5.93
2023-05-23T15:11:01.934Z,5.50
2023-05-23T15:16:03.764Z,4.78
2023-05-23T15:21:05.786Z,5.40
2023-05-23T15:26:07.578Z,5.15
2023-05-23T15:31:09.274Z,5.32
2023-05-23T15:36:13.129Z,5.22
2023-05-23T15:41:16.886Z,5.30
2023-05-23T15:46:18.724Z,4.47
2023-05-23T15:51:21.067Z,3.70
2023-05-23T15:56:22.839Z,2.78
2023-05-23T16:01:24.629Z,3.10
2023-05-23T16:06:28.161Z,2.60
2023-05-23T16:11:29.922Z,3.15
2023-05-23T16:16:31.773Z,3.10
2023-05-23T16:21:33.559Z,4.03
2023-05-23T16:26:35.375Z,4.63
2023-05-23T16:31:37.188Z,4.70
2023-05-23T16:36:38.914Z,4.25
2023-05-23T16:41:40.705Z,4.82
2023-05-23T16:46:42.529Z,3.55
2023-05-23T16:51:46.485Z,4.00
2023-05-23T16:56:49.607Z,3.80
2023-05-23T17:01:51.527Z,3.88
2023-05-23T17:06:53.455Z,3.70
2023-05-23T17:11:55.248Z,4.20
2023-05-23T17:16:57.004Z,3.72
2023-05-23T17:21:59.049Z,4.13
2023-05-23T17:27:00.717Z,3.85
2023-05-23T17:32:02.602Z,4.30
2023-05-23T17:37:04.666Z,3.03
2023-05-23T17:42:07.055Z,3.65
2023-05-23T17:47:08.869Z,2.85
2023-05-23T17:52:14.764Z,2.65
2023-05-23T17:57:16.939Z,1.53
2023-05-23T18:02:19.287Z,1.73
2023-05-23T18:07:21.334Z,1.55
2023-05-23T18:12:23.062Z,1.90
2023-05-23T18:17:25.214Z,1.85
2023-05-23T18:22:26.952Z,2.90
2023-05-23T18:27:28.648Z,3.50
2023-05-23T18:32:31.419Z,4.50
2023-05-23T18:37:33.141Z,4.32
2023-05-23T18:42:35.081Z,6.97
2023-05-23T18:47:36.826Z,7.40
2023-05-23T18:52:38.936Z,9.00
2023-05-23T18:57:40.668Z,10.45
2023-05-23T19:02:44.651Z,12.40
2023-05-23T19:07:46.474Z,13.57
2023-05-23T19:12:48.213Z,15.75
2023-05-23T19:17:50.489Z,14.30
2023-05-23T19:22:52.874Z,13.18
2023-05-23T19:27:54.704Z,13.52
2023-05-23T19:32:56.568Z,13.52
2023-05-23T19:37:58.425Z,12.85
2023-05-23T19:43:00.181Z,10.25
2023-05-23T19:48:02.102Z,11.07
2023-05-23T19:53:03.830Z,10.52
2023-05-23T19:58:05.993Z,9.35
2023-05-23T20:03:08.469Z,10.25
2023-05-23T20:08:10.467Z,9.23
2023-05-23T20:13:12.330Z,9.40
2023-05-23T20:18:14.058Z,8.50
2023-05-23T20:23:15.845Z,10.27
2023-05-23T20:28:17.559Z,10.27
2023-05-23T20:33:19.895Z,9.88
2023-05-23T20:38:21.748Z,9.18
2023-05-23T20:43:23.727Z,9.55
2023-05-23T20:48:25.499Z,8.65
2023-05-23T20:53:28.016Z,8.75
2023-05-23T20:58:29.796Z,8.23
2023-05-23T21:03:31.710Z,7.78
2023-05-23T21:08:34.872Z,9.10
2023-05-23T21:13:39.807Z,9.13
2023-05-23T21:18:41.805Z,8.48
2023-05-23T21:23:43.558Z,7.80
2023-05-23T21:28:45.763Z,8.88
2023-05-23T21:33:47.912Z,8.60
2023-05-23T21:38:49.582Z,9.27
2023-05-23T21:43:51.747Z,9.00
2023-05-23T21:48:53.446Z,8.75
2023-05-23T21:53:55.109Z,8.93
2023-05-23T21:59:06.350Z,8.63
2023-05-23T22:04:08.163Z,8.38
2023-05-23T22:09:11.528Z,8.02
2023-05-23T22:14:13.224Z,7.95
2023-05-23T22:19:18.003Z,8.80
2023-05-23T22:24:19.798Z,7.95
2023-05-23T22:29:21.683Z,8.27
2023-05-23T22:34:23.390Z,7.53
2023-05-23T22:39:25.042Z,7.57
2023-05-23T22:44:26.825Z,6.75
2023-05-23T22:49:30.142Z,7.43
2023-05-23T22:54:32.019Z,5.60
2023-05-23T22:59:33.791Z,5.22
2023-05-23T23:04:35.488Z,5.75
2023-05-23T23:09:37.453Z,5.07
2023-05-23T23:14:39.100Z,4.55
2023-05-23T23:19:41.271Z,4.32
2023-05-23T23:24:42.984Z,4.22
2023-05-23T23:29:44.720Z,4.03
2023-05-23T23:34:46.390Z,4.30
2023-05-23T23:39:48.218Z,3.95
2023-05-23T23:44:49.970Z,4.32
2023-05-23T23:49:51.910Z,4.05
2023-05-23T23:54:53.616Z,3.90
2023-05-23T23:59:55.530Z,4.20
